createdAt,value
2023-02-04T00:04:04.670Z,89.84
2023-02-04T00:07:01.420Z,90.00
2023-02-04T00:11:17.338Z,90.02
2023-02-04T00:14:36.568Z,90.19
2023-02-04T00:17:23.436Z,90.37
2023-02-04T00:20:11.132Z,90.31
2023-02-04T00:22:57.759Z,90.42
2023-02-04T00:25:44.427Z,90.45
2023-02-04T00:28:32.271Z,90.49
2023-02-04T00:31:20.277Z,90.58
2023-02-04T00:34:07.155Z,90.69
2023-02-04T00:36:53.643Z,90.68
2023-02-04T00:41:22.665Z,90.70
2023-02-04T00:45:17.904Z,90.74
2023-02-04T00:48:05.148Z,90.83
2023-02-04T00:50:53.180Z,90.82
2023-02-04T00:53:40.690Z,90.92
2023-02-04T00:56:27.325Z,90.88
2023-02-04T00:59:14.480Z,90.85
2023-02-04T01:02:01.168Z,90.95
2023-02-04T01:04:47.897Z,90.95
2023-02-04T01:07:34.860Z,91.06
2023-02-04T01:10:21.680Z,91.15
2023-02-04T01:13:09.394Z,91.09
2023-02-04T01:15:55.863Z,91.13
2023-02-04T01:18:42.548Z,91.08
2023-02-04T01:21:29.329Z,91.03
2023-02-04T01:24:15.959Z,90.90
2023-02-04T01:27:03.554Z,90.82
2023-02-04T01:29:49.923Z,90.75
2023-02-04T01:32:36.778Z,90.66
2023-02-04T01:35:23.415Z,90.75
2023-02-04T01:38:09.886Z,90.75
2023-02-04T01:40:57.991Z,90.71
2023-02-04T01:43:45.885Z,90.57
2023-02-04T01:46:36.014Z,90.48
2023-02-04T01:49:22.866Z,90.45
2023-02-04T01:52:11.534Z,90.44
2023-02-04T01:54:57.920Z,90.41
2023-02-04T01:58:12.484Z,90.34
2023-02-04T02:00:59.382Z,90.28
2023-02-04T02:03:45.796Z,90.37
2023-02-04T02:06:32.427Z,90.44
2023-02-04T02:09:19.575Z,90.38
2023-02-04T02:12:06.267Z,90.34
2023-02-04T02:14:52.956Z,90.24
2023-02-04T02:17:40.713Z,90.13
2023-02-04T02:20:29.754Z,90.14
2023-02-04T02:23:22.714Z,90.08
2023-02-04T02:26:11.154Z,90.04
2023-02-04T02:28:57.973Z,90.11
2023-02-04T02:31:44.496Z,90.05
2023-02-04T02:38:55.490Z,90.03
2023-02-04T02:41:42.094Z,89.95
2023-02-04T02:44:29.715Z,89.87
2023-02-04T02:47:19.431Z,89.85
2023-02-04T02:54:43.254Z,89.67
2023-02-04T02:57:29.914Z,89.49
2023-02-04T03:00:24.105Z,89.46
2023-02-04T03:03:20.220Z,89.42
2023-02-04T03:06:15.302Z,89.46
2023-02-04T03:09:04.912Z,89.49
2023-02-04T03:11:51.396Z,89.42
2023-02-04T03:14:39.140Z,89.47
2023-02-04T03:17:25.735Z,89.33
2023-02-04T03:20:16.379Z,89.24
2023-02-04T03:23:03.638Z,89.13
2023-02-04T03:25:52.662Z,89.15
2023-02-04T03:28:41.033Z,89.15
2023-02-04T03:31:28.042Z,89.16
2023-02-04T03:34:14.391Z,89.21
2023-02-04T03:37:01.439Z,89.23
2023-02-04T03:39:47.812Z,89.18
2023-02-04T03:42:34.956Z,89.20
2023-02-04T03:45:23.715Z,89.17
2023-02-04T03:48:10.327Z,89.12
2023-02-04T03:50:56.494Z,88.81
2023-02-04T03:53:42.747Z,88.62
2023-02-04T03:56:29.533Z,88.66
2023-02-04T03:59:16.238Z,88.69
2023-02-04T04:02:02.531Z,88.65
2023-02-04T04:04:49.217Z,88.53
2023-02-04T04:07:35.661Z,88.41
2023-02-04T04:10:22.059Z,88.34
2023-02-04T04:13:34.602Z,88.31
2023-02-04T04:16:21.055Z,88.35
2023-02-04T04:19:07.493Z,88.33
2023-02-04T04:21:55.916Z,88.42
2023-02-04T04:24:43.000Z,88.47
2023-02-04T04:27:30.242Z,88.42
2023-02-04T04:30:17.080Z,88.44
2023-02-04T04:33:03.736Z,88.59
2023-02-04T04:35:50.081Z,88.69
2023-02-04T04:38:36.499Z,88.76
2023-02-04T04:41:22.842Z,89.04
2023-02-04T04:44:09.559Z,89.17
2023-02-04T04:46:56.204Z,89.28
2023-02-04T04:49:43.174Z,89.34
2023-02-04T04:52:29.626Z,89.40
2023-02-04T04:59:36.270Z,89.58
2023-02-04T05:02:22.717Z,89.40
2023-02-04T05:05:11.153Z,89.39
2023-02-04T05:07:57.790Z,89.38
2023-02-04T05:10:44.221Z,89.18
2023-02-04T05:13:30.779Z,89.02
2023-02-04T05:16:18.326Z,89.09
2023-02-04T05:19:05.105Z,89.07
2023-02-04T05:26:17.126Z,88.98
2023-02-04T05:29:10.425Z,88.80
2023-02-04T05:31:57.101Z,88.85
2023-02-04T05:34:44.187Z,88.89
2023-02-04T05:37:31.185Z,88.86
2023-02-04T05:40:18.003Z,88.84
2023-02-04T05:43:05.101Z,88.74
2023-02-04T05:45:51.291Z,88.72
2023-02-04T05:48:40.110Z,88.77
2023-02-04T05:51:26.820Z,88.74
2023-02-04T05:54:19.651Z,88.70
2023-02-04T05:57:07.622Z,88.54
2023-02-04T05:59:53.984Z,88.44
2023-02-04T06:02:41.098Z,88.20
2023-02-04T06:05:27.738Z,88.00
2023-02-04T06:08:15.908Z,87.94
2023-02-04T06:11:02.122Z,87.75
2023-02-04T06:13:48.882Z,87.60
2023-02-04T06:16:35.512Z,87.49
2023-02-04T06:19:21.825Z,87.24
2023-02-04T06:22:08.575Z,86.99
2023-02-04T06:24:54.935Z,87.18
2023-02-04T06:27:41.286Z,87.15
2023-02-04T06:30:27.889Z,86.91
2023-02-04T06:33:16.615Z,86.91
2023-02-04T06:36:04.230Z,86.90
2023-02-04T06:38:50.806Z,86.70
2023-02-04T06:41:37.573Z,86.27
2023-02-04T06:44:23.759Z,86.17
2023-02-04T06:47:09.884Z,85.99
2023-02-04T06:49:56.063Z,85.98
2023-02-04T06:52:42.339Z,86.01
2023-02-04T06:55:30.124Z,85.99
2023-02-04T06:58:16.513Z,86.00
2023-02-04T07:01:03.253Z,86.05
2023-02-04T07:03:49.510Z,86.12
2023-02-04T07:06:36.023Z,85.85
2023-02-04T07:09:23.266Z,84.97
2023-02-04T07:12:09.963Z,84.56
2023-02-04T07:14:56.062Z,84.08
2023-02-04T07:17:42.590Z,83.82
2023-02-04T07:20:29.124Z,82.91
2023-02-04T07:23:15.569Z,81.77
2023-02-04T07:26:02.415Z,81.26
2023-02-04T07:28:56.754Z,81.18
2023-02-04T07:31:43.774Z,80.69
2023-02-04T07:34:30.631Z,79.65
2023-02-04T07:37:17.603Z,78.84
2023-02-04T07:40:04.954Z,78.90
2023-02-04T07:42:51.305Z,77.78
2023-02-04T07:45:37.839Z,77.43
2023-02-04T07:48:24.392Z,74.04
2023-02-04T07:51:10.751Z,73.21
2023-02-04T07:53:57.293Z,72.21
2023-02-04T07:56:46.480Z,71.38
2023-02-04T07:59:33.126Z,70.19
2023-02-04T08:02:19.481Z,69.30
2023-02-04T08:05:15.702Z,66.66
2023-02-04T08:08:03.036Z,65.43
2023-02-04T08:10:52.458Z,66.57
2023-02-04T08:13:39.009Z,65.34
2023-02-04T08:17:36.013Z,63.92
2023-02-04T08:21:37.682Z,63.09
2023-02-04T08:24:24.197Z,63.38
2023-02-04T08:27:11.726Z,63.71
2023-02-04T08:30:04.946Z,62.89
2023-02-04T08:32:51.682Z,62.62
2023-02-04T08:35:38.387Z,61.10
2023-02-04T08:39:16.259Z,59.90
2023-02-04T08:42:04.222Z,60.56
2023-02-04T08:44:55.410Z,60.50
2023-02-04T08:49:23.057Z,61.28
2023-02-04T08:52:10.196Z,61.20
2023-02-04T08:54:56.923Z,59.83
2023-02-04T08:57:44.244Z,60.71
2023-02-04T09:00:32.533Z,60.60
2023-02-04T09:03:38.459Z,57.57
2023-02-04T09:06:25.186Z,57.99
2023-02-04T09:09:13.108Z,59.13
2023-02-04T09:12:02.010Z,59.39
2023-02-04T09:14:48.600Z,58.67
2023-02-04T09:17:35.833Z,58.66
2023-02-04T09:20:22.822Z,57.70
2023-02-04T09:23:10.712Z,55.78
2023-02-04T09:25:58.659Z,55.72
2023-02-04T09:28:45.423Z,55.72
2023-02-04T09:31:34.160Z,55.77
2023-02-04T09:34:20.741Z,55.04
2023-02-04T09:39:29.317Z,50.76
2023-02-04T09:43:30.640Z,49.80
2023-02-04T11:14:02.634Z,65.16
2023-02-04T11:17:00.919Z,66.50
2023-02-04T12:12:09.008Z,64.73
2023-02-04T12:15:19.062Z,63.82
2023-02-04T12:18:15.691Z,63.06
2023-02-04T12:24:53.378Z,63.75
2023-02-04T12:46:20.426Z,58.15
2023-02-04T12:50:07.003Z,55.62
2023-02-04T12:53:57.482Z,53.91
2023-02-04T13:00:01.520Z,57.19
2023-02-04T13:12:25.245Z,58.83
2023-02-04T13:26:09.001Z,54.52
2023-02-04T13:28:56.159Z,55.63
2023-02-04T13:31:58.118Z,57.26
2023-02-04T13:34:44.490Z,56.52
2023-02-04T13:37:30.854Z,55.77
2023-02-04T13:40:27.581Z,54.67
2023-02-04T13:58:14.930Z,39.46
2023-02-04T14:26:39.420Z,50.16
2023-02-04T14:40:29.359Z,53.34
2023-02-04T14:44:00.244Z,54.26
2023-02-04T14:47:33.103Z,55.25
2023-02-04T14:51:44.038Z,56.70
2023-02-04T14:54:30.566Z,57.34
2023-02-04T14:57:17.207Z,57.75
2023-02-04T15:00:06.874Z,58.44
2023-02-04T15:02:54.668Z,59.04
2023-02-04T15:05:52.853Z,59.53
2023-02-04T15:09:48.478Z,60.18
2023-02-04T15:24:39.744Z,62.77
2023-02-04T15:27:38.112Z,62.97
2023-02-04T15:30:24.688Z,63.12
2023-02-04T15:33:18.093Z,63.63
2023-02-04T15:36:04.566Z,64.08
2023-02-04T15:39:25.047Z,64.25
2023-02-04T15:45:00.815Z,65.13
2023-02-04T15:48:57.866Z,65.59
2023-02-04T15:52:55.056Z,66.37
2023-02-04T16:07:20.443Z,66.38
2023-02-04T16:10:22.100Z,66.52
2023-02-04T16:13:58.822Z,66.49
2023-02-04T16:17:39.460Z,66.90
2023-02-04T16:21:08.774Z,67.07
2023-02-04T16:25:06.961Z,67.24
2023-02-04T16:29:08.247Z,66.82
2023-02-04T16:43:07.141Z,67.58
2023-02-04T16:45:53.685Z,67.36
2023-02-04T16:48:40.114Z,67.52
2023-02-04T16:51:26.876Z,67.88
2023-02-04T16:54:14.385Z,68.18
2023-02-04T16:57:18.805Z,68.61
2023-02-04T17:01:19.597Z,68.62
2023-02-04T17:05:39.873Z,68.73
2023-02-04T17:09:14.837Z,68.60
2023-02-04T17:22:57.198Z,68.95
2023-02-04T17:26:11.382Z,68.96
2023-02-04T17:28:57.855Z,69.27
2023-02-04T17:31:44.482Z,69.55
2023-02-04T17:34:31.308Z,69.86
2023-02-04T17:37:17.792Z,70.02
2023-02-04T17:40:05.564Z,70.14
2023-02-04T17:42:52.243Z,70.12
2023-02-04T17:45:38.905Z,70.26
2023-02-04T17:48:25.522Z,70.30
2023-02-04T17:51:13.828Z,70.70
2023-02-04T17:54:00.000Z,70.78
2023-02-04T17:56:52.391Z,70.81
2023-02-04T17:59:39.906Z,70.57
2023-02-04T18:02:33.956Z,70.70
2023-02-04T18:05:24.291Z,70.53
2023-02-04T18:08:19.535Z,70.09
2023-02-04T18:11:15.624Z,69.69
2023-02-04T18:14:12.030Z,69.78
2023-02-04T18:16:59.597Z,70.26
2023-02-04T18:24:19.521Z,70.67
2023-02-04T18:27:30.463Z,70.83
2023-02-04T18:30:26.430Z,70.83
2023-02-04T18:33:20.814Z,70.96
2023-02-04T18:36:12.106Z,71.02
2023-02-04T18:38:59.673Z,71.00
2023-02-04T18:41:51.283Z,70.64
2023-02-04T18:44:38.579Z,70.49
2023-02-04T18:47:36.014Z,70.16
2023-02-04T18:50:33.194Z,69.86
2023-02-04T18:53:22.319Z,69.86
2023-02-04T18:56:15.925Z,70.02
2023-02-04T18:59:10.207Z,70.25
2023-02-04T19:01:56.426Z,70.36
2023-02-04T19:04:43.850Z,70.54
2023-02-04T19:07:34.840Z,70.99
2023-02-04T19:10:28.963Z,71.03
2023-02-04T19:13:21.599Z,71.10
2023-02-04T19:16:17.679Z,71.32
2023-02-04T19:19:29.437Z,71.33
2023-02-04T19:22:40.627Z,71.25
2023-02-04T19:25:56.996Z,71.38
2023-02-04T19:28:44.621Z,71.61
2023-02-04T19:31:35.012Z,71.50
2023-02-04T19:34:24.380Z,71.69
2023-02-04T19:37:43.749Z,71.76
2023-02-04T19:40:37.610Z,71.91
2023-02-04T19:43:33.776Z,71.91
2023-02-04T19:46:26.746Z,71.89
2023-02-04T19:49:28.826Z,72.03
2023-02-04T19:52:33.885Z,72.29
2023-02-04T19:55:27.397Z,72.37
2023-02-04T19:58:19.620Z,72.34
2023-02-04T20:01:11.376Z,72.63
2023-02-04T20:04:00.259Z,72.95
2023-02-04T20:06:47.952Z,73.05
2023-02-04T20:09:35.462Z,72.92
2023-02-04T20:12:22.376Z,73.06
2023-02-04T20:15:18.878Z,73.26
2023-02-04T20:18:23.982Z,73.33
2023-02-04T20:21:11.635Z,73.23
2023-02-04T20:23:58.101Z,73.38
2023-02-04T20:26:45.440Z,73.34
2023-02-04T20:29:34.575Z,73.53
2023-02-04T20:32:26.443Z,73.60
2023-02-04T20:35:18.909Z,73.59
2023-02-04T20:38:16.524Z,73.66
2023-02-04T20:41:15.286Z,73.74
2023-02-04T20:44:02.613Z,73.85
2023-02-04T20:46:48.871Z,74.08
2023-02-04T20:49:40.863Z,74.29
2023-02-04T20:52:46.094Z,74.19
2023-02-04T20:55:34.548Z,74.22
2023-02-04T20:58:24.614Z,74.31
2023-02-04T21:01:29.054Z,74.35
2023-02-04T21:04:29.353Z,74.54
2023-02-04T21:07:19.141Z,74.69
2023-02-04T21:10:06.028Z,74.76
2023-02-04T21:12:52.547Z,74.68
2023-02-04T21:15:43.163Z,74.82
2023-02-04T21:18:50.977Z,74.87
2023-02-04T21:21:51.746Z,74.97
2023-02-04T21:24:56.024Z,75.12
2023-02-04T21:27:53.739Z,75.20
2023-02-04T21:30:55.928Z,75.35
2023-02-04T21:34:01.048Z,75.50
2023-02-04T21:36:50.793Z,75.64
2023-02-04T21:39:43.121Z,75.89
2023-02-04T21:43:03.273Z,76.10
2023-02-04T21:45:59.342Z,76.32
2023-02-04T21:48:46.530Z,76.35
2023-02-04T21:51:33.310Z,76.58
2023-02-04T21:54:20.194Z,76.85
2023-02-04T21:57:06.803Z,77.00
2023-02-04T21:59:54.565Z,77.18
2023-02-04T22:02:43.447Z,77.34
2023-02-04T22:05:33.123Z,77.50
2023-02-04T22:08:19.954Z,77.67
2023-02-04T22:11:06.533Z,77.81
2023-02-04T22:13:54.530Z,77.93
2023-02-04T22:16:41.313Z,78.03
2023-02-04T22:19:28.280Z,78.07
2023-02-04T22:22:15.200Z,78.17
2023-02-04T22:25:02.411Z,78.28
2023-02-04T22:27:48.919Z,78.43
2023-02-04T22:30:35.982Z,78.54
2023-02-04T22:33:22.547Z,78.67
2023-02-04T22:36:12.300Z,78.85
2023-02-04T22:38:58.956Z,79.04
2023-02-04T22:41:45.648Z,79.19
2023-02-04T22:44:32.629Z,79.33
2023-02-04T22:47:19.319Z,79.46
2023-02-04T22:50:06.452Z,79.66
2023-02-04T22:52:52.811Z,79.78
2023-02-04T22:55:39.881Z,80.00
2023-02-04T22:58:26.735Z,80.11
2023-02-04T23:01:13.576Z,80.23
2023-02-04T23:04:00.427Z,80.37
2023-02-04T23:06:50.326Z,80.53
2023-02-04T23:09:37.009Z,80.58
2023-02-04T23:12:24.295Z,80.67
2023-02-04T23:15:12.750Z,80.78
2023-02-04T23:18:00.626Z,80.84
2023-02-04T23:20:47.385Z,80.93
2023-02-04T23:23:34.031Z,80.91
2023-02-04T23:26:21.154Z,80.94
2023-02-04T23:29:07.771Z,80.99
2023-02-04T23:31:55.926Z,80.94
2023-02-04T23:34:42.398Z,80.94
2023-02-04T23:37:29.186Z,80.97
2023-02-04T23:40:15.950Z,81.13
2023-02-04T23:43:02.391Z,81.31
2023-02-04T23:45:49.235Z,81.55
2023-02-04T23:48:35.918Z,81.81
2023-02-04T23:51:22.663Z,81.92
2023-02-04T23:54:09.146Z,81.90
2023-02-04T23:56:56.083Z,81.91
2023-02-04T23:59:42.634Z,81.88
